ISS1262 LIEO-LIEE
Flight info
| Callsign | ISS1262 |
|---|---|
| Flight time | 0h 27m |
| Altitude | 15000 |
| Route | SUKUN M603 IDEPA Q125 KOVAS |
| Aircraft | B739/M-SDE2E3FGHIRWXY/LB1 |
Departure
| Time | 2026-04-27 18:19 |
|---|---|
| Airport | Olbia Costa Smeralda Airport (LIEO) |
Arrival
| Time | 2026-04-27 18:46 |
|---|---|
| Airport | Cagliari Elmas Airport (LIEE) |
| Time | Latitude | Longitude | Altitude | Speed | Heading |
|---|---|---|---|---|---|
| 2026-04-27 18:03 | 40.90112 | 9.51393 | 49 ft | 0 kts | 24° |
| 2026-04-27 18:11 | 40.90113 | 9.51393 | 48 ft | 0 kts | 24° |
| 2026-04-27 18:12 | 40.90114 | 9.51395 | 49 ft | 0 kts | 51° |
| 2026-04-27 18:12 | 40.90113 | 9.51401 | 49 ft | 1 kts | 104° |
| 2026-04-27 18:12 | 40.90104 | 9.51414 | 48 ft | 2 kts | 144° |
| 2026-04-27 18:12 | 40.90085 | 9.51429 | 48 ft | 3 kts | 149° |
| 2026-04-27 18:13 | 40.90062 | 9.51449 | 48 ft | 4 kts | 144° |
| 2026-04-27 18:13 | 40.90037 | 9.51476 | 48 ft | 4 kts | 139° |
| 2026-04-27 18:13 | 40.90013 | 9.51505 | 48 ft | 4 kts | 137° |
| 2026-04-27 18:13 | 40.89984 | 9.51516 | 48 ft | 4 kts | 187° |
| 2026-04-27 18:14 | 40.89955 | 9.51502 | 48 ft | 4 kts | 210° |
| 2026-04-27 18:14 | 40.89928 | 9.51474 | 48 ft | 6 kts | 224° |
| 2026-04-27 18:14 | 40.89870 | 9.51379 | 49 ft | 21 kts | 235° |
| 2026-04-27 18:14 | 40.89780 | 9.51204 | 49 ft | 22 kts | 236° |
| 2026-04-27 18:15 | 40.89686 | 9.51039 | 49 ft | 22 kts | 236° |
| 2026-04-27 18:15 | 40.89603 | 9.50862 | 49 ft | 22 kts | 238° |
| 2026-04-27 18:15 | 40.89517 | 9.50706 | 49 ft | 21 kts | 234° |
| 2026-04-27 18:15 | 40.89470 | 9.50528 | 49 ft | 19 kts | 267° |
| 2026-04-27 18:16 | 40.89418 | 9.50425 | 49 ft | 0 kts | 208° |
| 2026-04-27 18:16 | 40.89417 | 9.50424 | 49 ft | 0 kts | 208° |
| 2026-04-27 18:16 | 40.89407 | 9.50418 | 49 ft | 2 kts | 206° |
| 2026-04-27 18:17 | 40.89386 | 9.50407 | 49 ft | 5 kts | 195° |
| 2026-04-27 18:17 | 40.89297 | 9.50450 | 49 ft | 16 kts | 133° |
| 2026-04-27 18:17 | 40.89275 | 9.50501 | 49 ft | 7 kts | 112° |
| 2026-04-27 18:17 | 40.89284 | 9.50645 | 49 ft | 18 kts | 58° |
| 2026-04-27 18:18 | 40.89292 | 9.50662 | 49 ft | 0 kts | 54° |
| 2026-04-27 18:18 | 40.89310 | 9.50691 | 49 ft | 22 kts | 49° |
| 2026-04-27 18:18 | 40.89519 | 9.51073 | 49 ft | 79 kts | 57° |
| 2026-04-27 18:18 | 40.89912 | 9.51862 | 49 ft | 125 kts | 56° |
| 2026-04-27 18:19 | 40.90487 | 9.52951 | 49 ft | 163 kts | 52° |
| 2026-04-27 18:19 | 40.91210 | 9.54045 | 533 ft | 148 kts | 48° |
| 2026-04-27 18:19 | 40.91962 | 9.54937 | 922 ft | 147 kts | 44° |
| 2026-04-27 18:19 | 40.92697 | 9.55906 | 1196 ft | 155 kts | 38° |
| 2026-04-27 18:20 | 40.93478 | 9.57032 | 1437 ft | 163 kts | 54° |
| 2026-04-27 18:20 | 40.93827 | 9.58300 | 1587 ft | 149 kts | 105° |
| 2026-04-27 18:20 | 40.93446 | 9.59702 | 2044 ft | 170 kts | 104° |
| 2026-04-27 18:20 | 40.93619 | 9.61245 | 2680 ft | 188 kts | 58° |
| 2026-04-27 18:21 | 40.94659 | 9.62360 | 3389 ft | 204 kts | 28° |
| 2026-04-27 18:21 | 40.95950 | 9.63276 | 4074 ft | 219 kts | 37° |
| 2026-04-27 18:21 | 40.96932 | 9.64899 | 4736 ft | 236 kts | 70° |
| 2026-04-27 18:21 | 40.97139 | 9.67078 | 5401 ft | 251 kts | 97° |
| 2026-04-27 18:22 | 40.96620 | 9.69301 | 6171 ft | 263 kts | 116° |
| 2026-04-27 18:22 | 40.95531 | 9.71285 | 6851 ft | 279 kts | 136° |
| 2026-04-27 18:22 | 40.93990 | 9.72894 | 7762 ft | 285 kts | 145° |
| 2026-04-27 18:22 | 40.92369 | 9.74367 | 8762 ft | 287 kts | 146° |
| 2026-04-27 18:23 | 40.90738 | 9.75863 | 9689 ft | 290 kts | 144° |
| 2026-04-27 18:23 | 40.89091 | 9.77425 | 10546 ft | 298 kts | 143° |
| 2026-04-27 18:23 | 40.87392 | 9.79073 | 11135 ft | 314 kts | 143° |
| 2026-04-27 18:23 | 40.85596 | 9.80834 | 11699 ft | 330 kts | 143° |
| 2026-04-27 18:24 | 40.83710 | 9.82688 | 12249 ft | 347 kts | 143° |
| 2026-04-27 18:24 | 40.81731 | 9.84629 | 12767 ft | 364 kts | 143° |
| 2026-04-27 18:24 | 40.79639 | 9.86663 | 13276 ft | 380 kts | 144° |
| 2026-04-27 18:24 | 40.77325 | 9.88460 | 13860 ft | 393 kts | 156° |
| 2026-04-27 18:25 | 40.74707 | 9.89394 | 14719 ft | 395 kts | 173° |
| 2026-04-27 18:25 | 40.71949 | 9.89321 | 15038 ft | 397 kts | 189° |
| 2026-04-27 18:25 | 40.69314 | 9.88234 | 15072 ft | 395 kts | 205° |
| 2026-04-27 18:25 | 40.66946 | 9.86334 | 15074 ft | 393 kts | 218° |
| 2026-04-27 18:26 | 40.65024 | 9.83856 | 15073 ft | 393 kts | 233° |
| 2026-04-27 18:26 | 40.63715 | 9.80714 | 15077 ft | 392 kts | 250° |
| 2026-04-27 18:26 | 40.63108 | 9.77190 | 15074 ft | 393 kts | 264° |
| 2026-04-27 18:26 | 40.63065 | 9.73643 | 15073 ft | 391 kts | 275° |
| 2026-04-27 18:27 | 40.63472 | 9.70111 | 15076 ft | 391 kts | 283° |
| 2026-04-27 18:27 | 40.64263 | 9.66705 | 15077 ft | 391 kts | 289° |
| 2026-04-27 18:27 | 40.64966 | 9.63239 | 15075 ft | 392 kts | 279° |
| 2026-04-27 18:27 | 40.64887 | 9.59708 | 15077 ft | 392 kts | 257° |
| 2026-04-27 18:28 | 40.63792 | 9.56544 | 15073 ft | 392 kts | 236° |
| 2026-04-27 18:28 | 40.61926 | 9.53922 | 15086 ft | 394 kts | 221° |
| 2026-04-27 18:28 | 40.59714 | 9.51822 | 15089 ft | 393 kts | 212° |
| 2026-04-27 18:28 | 40.57318 | 9.50134 | 15086 ft | 394 kts | 206° |
| 2026-04-27 18:29 | 40.54809 | 9.48695 | 15089 ft | 395 kts | 203° |
| 2026-04-27 18:29 | 40.52267 | 9.47396 | 15091 ft | 395 kts | 201° |
| 2026-04-27 18:29 | 40.49706 | 9.46148 | 15093 ft | 395 kts | 201° |
| 2026-04-27 18:29 | 40.47132 | 9.44903 | 15096 ft | 395 kts | 201° |
| 2026-04-27 18:30 | 40.44531 | 9.43634 | 15096 ft | 395 kts | 201° |
| 2026-04-27 18:30 | 40.41985 | 9.42377 | 15095 ft | 395 kts | 201° |
| 2026-04-27 18:30 | 40.39411 | 9.41094 | 15096 ft | 395 kts | 201° |
| 2026-04-27 18:30 | 40.36870 | 9.39818 | 15096 ft | 395 kts | 201° |
| 2026-04-27 18:31 | 40.34317 | 9.38532 | 15096 ft | 394 kts | 202° |
| 2026-04-27 18:31 | 40.31731 | 9.37228 | 15097 ft | 394 kts | 202° |
| 2026-04-27 18:31 | 40.29201 | 9.35933 | 15096 ft | 386 kts | 202° |
| 2026-04-27 18:31 | 40.26732 | 9.34672 | 15099 ft | 385 kts | 201° |
| 2026-04-27 18:32 | 40.24188 | 9.33394 | 15097 ft | 393 kts | 201° |
| 2026-04-27 18:32 | 40.21634 | 9.32119 | 15096 ft | 393 kts | 201° |
| 2026-04-27 18:32 | 40.19096 | 9.30852 | 15099 ft | 394 kts | 201° |
| 2026-04-27 18:32 | 40.16533 | 9.29573 | 15101 ft | 394 kts | 201° |
| 2026-04-27 18:33 | 40.13971 | 9.28293 | 15104 ft | 394 kts | 201° |
| 2026-04-27 18:33 | 40.11414 | 9.27013 | 15108 ft | 394 kts | 201° |
| 2026-04-27 18:33 | 40.08902 | 9.25755 | 15111 ft | 394 kts | 201° |
| 2026-04-27 18:33 | 40.06357 | 9.24482 | 15115 ft | 394 kts | 201° |
| 2026-04-27 18:34 | 40.03851 | 9.23228 | 15115 ft | 391 kts | 201° |
| 2026-04-27 18:34 | 40.01419 | 9.22014 | 15113 ft | 369 kts | 201° |
| 2026-04-27 18:34 | 39.99112 | 9.20863 | 15120 ft | 356 kts | 201° |
| 2026-04-27 18:34 | 39.96810 | 9.19713 | 15118 ft | 359 kts | 201° |
| 2026-04-27 18:35 | 39.94523 | 9.18572 | 15116 ft | 358 kts | 201° |
| 2026-04-27 18:35 | 39.92196 | 9.17412 | 15112 ft | 359 kts | 201° |
| 2026-04-27 18:35 | 39.89888 | 9.16262 | 14992 ft | 354 kts | 201° |
| 2026-04-27 18:35 | 39.87606 | 9.15128 | 14425 ft | 353 kts | 201° |
| 2026-04-27 18:36 | 39.85321 | 9.14030 | 13796 ft | 352 kts | 199° |
| 2026-04-27 18:36 | 39.82975 | 9.13116 | 13378 ft | 345 kts | 196° |
| 2026-04-27 18:36 | 39.80662 | 9.12346 | 12714 ft | 347 kts | 194° |
| 2026-04-27 18:36 | 39.78317 | 9.11611 | 12189 ft | 343 kts | 194° |
| 2026-04-27 18:37 | 39.75997 | 9.10882 | 11654 ft | 340 kts | 194° |
| 2026-04-27 18:37 | 39.73726 | 9.10152 | 11127 ft | 337 kts | 195° |
| 2026-04-27 18:37 | 39.71491 | 9.09417 | 10777 ft | 328 kts | 195° |
| 2026-04-27 18:37 | 39.69326 | 9.08697 | 10654 ft | 312 kts | 195° |
| 2026-04-27 18:38 | 39.67285 | 9.08014 | 10550 ft | 297 kts | 195° |
| 2026-04-27 18:38 | 39.65318 | 9.07363 | 10454 ft | 284 kts | 194° |
| 2026-04-27 18:38 | 39.63408 | 9.06974 | 10220 ft | 277 kts | 185° |
| 2026-04-27 18:38 | 39.61472 | 9.06956 | 9898 ft | 274 kts | 179° |
| 2026-04-27 18:39 | 39.59602 | 9.07079 | 9794 ft | 262 kts | 178° |
| 2026-04-27 18:39 | 39.57820 | 9.07195 | 9711 ft | 251 kts | 179° |
| 2026-04-27 18:39 | 39.56116 | 9.07272 | 9628 ft | 240 kts | 180° |
| 2026-04-27 18:39 | 39.54462 | 9.07315 | 9516 ft | 229 kts | 182° |
| 2026-04-27 18:40 | 39.52922 | 9.07036 | 9310 ft | 222 kts | 201° |
| 2026-04-27 18:40 | 39.51604 | 9.06028 | 9059 ft | 219 kts | 219° |
| 2026-04-27 18:40 | 39.50440 | 9.04829 | 8937 ft | 211 kts | 219° |
| 2026-04-27 18:40 | 39.49297 | 9.03693 | 8881 ft | 200 kts | 218° |
| 2026-04-27 18:41 | 39.48211 | 9.02655 | 8824 ft | 190 kts | 217° |
| 2026-04-27 18:41 | 39.47147 | 9.01649 | 8562 ft | 193 kts | 217° |
| 2026-04-27 18:41 | 39.45994 | 9.00561 | 7968 ft | 212 kts | 216° |
| 2026-04-27 18:41 | 39.44716 | 8.99359 | 7025 ft | 242 kts | 216° |
| 2026-04-27 18:42 | 39.43297 | 8.98028 | 6092 ft | 263 kts | 216° |
| 2026-04-27 18:42 | 39.42318 | 8.97109 | 5627 ft | 268 kts | 216° |
| 2026-04-27 18:42 | 39.40280 | 8.95199 | 4739 ft | 275 kts | 215° |
| 2026-04-27 18:42 | 39.38675 | 8.93854 | 4079 ft | 279 kts | 207° |
| 2026-04-27 18:43 | 39.36836 | 8.93157 | 3414 ft | 279 kts | 180° |
| 2026-04-27 18:43 | 39.35055 | 8.93747 | 2755 ft | 258 kts | 147° |
| 2026-04-27 18:43 | 39.33772 | 8.95160 | 2359 ft | 231 kts | 133° |
| 2026-04-27 18:43 | 39.32722 | 8.96532 | 2255 ft | 201 kts | 133° |
| 2026-04-27 18:44 | 39.31796 | 8.97812 | 1878 ft | 187 kts | 127° |
| 2026-04-27 18:44 | 39.31005 | 8.98926 | 1663 ft | 176 kts | 140° |
| 2026-04-27 18:44 | 39.30007 | 8.99782 | 1167 ft | 172 kts | 141° |
| 2026-04-27 18:44 | 39.29189 | 9.00740 | 1011 ft | 158 kts | 136° |
| 2026-04-27 18:45 | 39.28399 | 9.01613 | 702 ft | 154 kts | 138° |
| 2026-04-27 18:45 | 39.27660 | 9.02528 | 463 ft | 147 kts | 137° |
| 2026-04-27 18:45 | 39.26940 | 9.03371 | 227 ft | 142 kts | 141° |
| 2026-04-27 18:45 | 39.26246 | 9.04173 | 86 ft | 131 kts | 142° |
| 2026-04-27 18:46 | 39.25586 | 9.04922 | 21 ft | 120 kts | 142° |
| 2026-04-27 18:46 | 39.24958 | 9.05631 | 20 ft | 123 kts | 137° |
| 2026-04-27 18:46 | 39.24446 | 9.06224 | 20 ft | 57 kts | 133° |
| 2026-04-27 18:46 | 39.24283 | 9.06435 | 20 ft | 21 kts | 135° |
| 2026-04-27 18:47 | 39.24318 | 9.06558 | 20 ft | 18 kts | 20° |
| 2026-04-27 18:47 | 39.24437 | 9.06529 | 20 ft | 18 kts | 318° |
| 2026-04-27 18:47 | 39.24514 | 9.06437 | 20 ft | 12 kts | 316° |
| 2026-04-27 18:47 | 39.24579 | 9.06363 | 20 ft | 12 kts | 319° |
| 2026-04-27 18:48 | 39.24640 | 9.06289 | 20 ft | 12 kts | 315° |
| 2026-04-27 18:48 | 39.24705 | 9.06217 | 20 ft | 12 kts | 320° |
| 2026-04-27 18:48 | 39.24768 | 9.06146 | 20 ft | 11 kts | 317° |
| 2026-04-27 18:48 | 39.24828 | 9.06074 | 20 ft | 11 kts | 316° |
| 2026-04-27 18:49 | 39.24887 | 9.06004 | 20 ft | 11 kts | 318° |
| 2026-04-27 18:49 | 39.24948 | 9.05937 | 20 ft | 11 kts | 318° |
| 2026-04-27 18:49 | 39.25005 | 9.05867 | 20 ft | 11 kts | 315° |
| 2026-04-27 18:49 | 39.25065 | 9.05800 | 20 ft | 12 kts | 330° |
| 2026-04-27 18:50 | 39.25140 | 9.05814 | 20 ft | 11 kts | 50° |
| 2026-04-27 18:50 | 39.25200 | 9.05828 | 20 ft | 7 kts | 344° |
| 2026-04-27 18:50 | 39.25243 | 9.05857 | 20 ft | 7 kts | 45° |
| 2026-04-27 18:50 | 39.25245 | 9.05859 | 20 ft | 0 kts | 46° |